Peoga, Indiana
Current Conditions -  °F | °C
As of 3:15 AM on Thursday 27 Nov 2014 (Local Time) from K1II Reporting Station
Overcast Overcast  
Wind Chill: 24°   Ceiling: 2300
Heat Index: 30°   Visibility: 10mi
Dew Point: 25°   Wind: 6mph
Humidity: 80%   Direction: 340°NNW
Pressure: 30.15"   Gusts: NA
Location:  39.3709°N, 86.1938°W
Report Text: K1II 270815Z AUTO 34005KT 10SM BKN023 OVC100 M01/M04 A3015 RMK AO2
Loading
Personal Weather Stations






























Interactive Weather Map New forecast layout! Learn more

10-Day Weather Forecast

Advertisements
Track Severe Weather on mobile